sensor_id;sensor_type;location;lat;lon;timestamp;P1;durP1;ratioP1;P2;durP2;ratioP2
71490;SDS011;59307;50.060;9.150;2023-02-12T00:01:23;39.33;;;18.13;;
71490;SDS011;59307;50.060;9.150;2023-02-12T00:03:48;38.13;;;18.77;;
71490;SDS011;59307;50.060;9.150;2023-02-12T00:06:14;34.23;;;18.10;;
71490;SDS011;59307;50.060;9.150;2023-02-12T00:08:39;35.17;;;17.70;;
71490;SDS011;59307;50.060;9.150;2023-02-12T00:11:11;42.03;;;18.93;;
71490;SDS011;59307;50.060;9.150;2023-02-12T00:13:37;39.83;;;18.75;;
71490;SDS011;59307;50.060;9.150;2023-02-12T00:16:06;36.17;;;18.73;;
71490;SDS011;59307;50.060;9.150;2023-02-12T00:18:31;40.22;;;18.55;;
71490;SDS011;59307;50.060;9.150;2023-02-12T00:20:58;37.70;;;18.83;;
71490;SDS011;59307;50.060;9.150;2023-02-12T00:23:23;43.70;;;19.92;;
71490;SDS011;59307;50.060;9.150;2023-02-12T00:25:48;41.53;;;19.10;;
71490;SDS011;59307;50.060;9.150;2023-02-12T00:28:13;38.33;;;19.33;;
71490;SDS011;59307;50.060;9.150;2023-02-12T00:30:39;42.17;;;19.70;;
71490;SDS011;59307;50.060;9.150;2023-02-12T00:33:04;42.40;;;20.33;;
71490;SDS011;59307;50.060;9.150;2023-02-12T00:35:29;45.27;;;21.03;;
71490;SDS011;59307;50.060;9.150;2023-02-12T00:37:54;43.97;;;20.33;;
71490;SDS011;59307;50.060;9.150;2023-02-12T00:40:20;39.80;;;20.43;;
71490;SDS011;59307;50.060;9.150;2023-02-12T00:42:45;41.37;;;20.87;;
71490;SDS011;59307;50.060;9.150;2023-02-12T00:45:10;42.53;;;21.10;;
71490;SDS011;59307;50.060;9.150;2023-02-12T00:47:35;42.13;;;19.77;;
71490;SDS011;59307;50.060;9.150;2023-02-12T00:50:00;42.33;;;20.53;;
71490;SDS011;59307;50.060;9.150;2023-02-12T00:52:26;38.50;;;19.80;;
71490;SDS011;59307;50.060;9.150;2023-02-12T00:54:51;40.60;;;20.87;;
71490;SDS011;59307;50.060;9.150;2023-02-12T00:57:16;41.30;;;20.77;;
71490;SDS011;59307;50.060;9.150;2023-02-12T00:59:41;42.20;;;20.27;;
71490;SDS011;59307;50.060;9.150;2023-02-12T01:02:07;40.67;;;20.80;;
71490;SDS011;59307;50.060;9.150;2023-02-12T01:04:32;40.97;;;19.87;;
71490;SDS011;59307;50.060;9.150;2023-02-12T01:06:57;43.77;;;21.00;;
71490;SDS011;59307;50.060;9.150;2023-02-12T01:09:22;46.57;;;20.27;;
71490;SDS011;59307;50.060;9.150;2023-02-12T01:11:48;45.73;;;21.23;;
71490;SDS011;59307;50.060;9.150;2023-02-12T01:14:14;48.77;;;21.07;;
71490;SDS011;59307;50.060;9.150;2023-02-12T01:16:39;39.93;;;20.03;;
71490;SDS011;59307;50.060;9.150;2023-02-12T01:19:04;41.30;;;20.10;;
71490;SDS011;59307;50.060;9.150;2023-02-12T01:21:30;42.90;;;20.58;;
71490;SDS011;59307;50.060;9.150;2023-02-12T01:23:56;40.60;;;19.20;;
71490;SDS011;59307;50.060;9.150;2023-02-12T01:26:22;42.33;;;19.08;;
71490;SDS011;59307;50.060;9.150;2023-02-12T01:28:48;40.27;;;20.10;;
71490;SDS011;59307;50.060;9.150;2023-02-12T01:31:14;46.42;;;21.15;;
71490;SDS011;59307;50.060;9.150;2023-02-12T01:33:40;41.33;;;20.50;;
71490;SDS011;59307;50.060;9.150;2023-02-12T01:36:05;47.05;;;22.10;;
71490;SDS011;59307;50.060;9.150;2023-02-12T01:38:31;45.97;;;21.90;;
71490;SDS011;59307;50.060;9.150;2023-02-12T01:41:06;45.83;;;21.30;;
71490;SDS011;59307;50.060;9.150;2023-02-12T01:43:33;47.97;;;22.60;;
71490;SDS011;59307;50.060;9.150;2023-02-12T01:45:58;51.75;;;24.13;;
71490;SDS011;59307;50.060;9.150;2023-02-12T01:48:24;58.37;;;24.97;;
71490;SDS011;59307;50.060;9.150;2023-02-12T01:50:51;58.63;;;25.60;;
71490;SDS011;59307;50.060;9.150;2023-02-12T01:53:17;51.70;;;23.98;;
71490;SDS011;59307;50.060;9.150;2023-02-12T01:55:47;44.03;;;22.70;;
71490;SDS011;59307;50.060;9.150;2023-02-12T01:58:13;48.63;;;23.15;;
71490;SDS011;59307;50.060;9.150;2023-02-12T02:00:39;54.00;;;24.02;;
71490;SDS011;59307;50.060;9.150;2023-02-12T02:03:04;52.50;;;25.10;;
71490;SDS011;59307;50.060;9.150;2023-02-12T02:06:03;51.67;;;23.90;;
71490;SDS011;59307;50.060;9.150;2023-02-12T02:08:21;51.58;;;24.25;;
71490;SDS011;59307;50.060;9.150;2023-02-12T02:10:47;54.47;;;24.83;;
71490;SDS011;59307;50.060;9.150;2023-02-12T02:13:13;47.67;;;23.40;;
71490;SDS011;59307;50.060;9.150;2023-02-12T02:15:58;50.30;;;24.63;;
71490;SDS011;59307;50.060;9.150;2023-02-12T02:18:57;53.33;;;25.40;;
71490;SDS011;59307;50.060;9.150;2023-02-12T02:26:38;42.20;;;21.65;;
71490;SDS011;59307;50.060;9.150;2023-02-12T02:32:22;46.33;;;21.25;;
71490;SDS011;59307;50.060;9.150;2023-02-12T02:34:57;51.08;;;21.42;;
71490;SDS011;59307;50.060;9.150;2023-02-12T02:37:25;44.83;;;20.80;;
71490;SDS011;59307;50.060;9.150;2023-02-12T02:39:59;46.20;;;21.42;;
71490;SDS011;59307;50.060;9.150;2023-02-12T02:42:36;50.75;;;22.63;;
71490;SDS011;59307;50.060;9.150;2023-02-12T02:45:05;44.22;;;21.25;;
71490;SDS011;59307;50.060;9.150;2023-02-12T02:47:33;46.83;;;21.67;;
71490;SDS011;59307;50.060;9.150;2023-02-12T02:50:04;47.73;;;22.43;;
71490;SDS011;59307;50.060;9.150;2023-02-12T02:52:34;49.13;;;21.10;;
71490;SDS011;59307;50.060;9.150;2023-02-12T02:55:02;45.22;;;20.88;;
71490;SDS011;59307;50.060;9.150;2023-02-12T02:57:35;48.88;;;22.33;;
71490;SDS011;59307;50.060;9.150;2023-02-12T03:00:04;49.65;;;23.15;;
71490;SDS011;59307;50.060;9.150;2023-02-12T03:02:31;43.63;;;20.80;;
71490;SDS011;59307;50.060;9.150;2023-02-12T03:04:59;53.08;;;23.20;;
71490;SDS011;59307;50.060;9.150;2023-02-12T03:07:27;47.00;;;23.77;;
71490;SDS011;59307;50.060;9.150;2023-02-12T03:09:56;49.17;;;22.63;;
71490;SDS011;59307;50.060;9.150;2023-02-12T03:12:30;46.38;;;23.25;;
71490;SDS011;59307;50.060;9.150;2023-02-12T03:15:08;43.47;;;21.30;;
71490;SDS011;59307;50.060;9.150;2023-02-12T03:17:34;49.33;;;21.98;;
71490;SDS011;59307;50.060;9.150;2023-02-12T03:20:03;44.03;;;21.42;;
71490;SDS011;59307;50.060;9.150;2023-02-12T03:22:30;45.83;;;21.40;;
71490;SDS011;59307;50.060;9.150;2023-02-12T03:25:02;42.40;;;20.77;;
71490;SDS011;59307;50.060;9.150;2023-02-12T03:27:30;43.53;;;21.10;;
71490;SDS011;59307;50.060;9.150;2023-02-12T03:29:56;43.00;;;20.95;;
71490;SDS011;59307;50.060;9.150;2023-02-12T03:32:37;43.13;;;21.35;;
71490;SDS011;59307;50.060;9.150;2023-02-12T03:37:36;48.00;;;22.48;;
71490;SDS011;59307;50.060;9.150;2023-02-12T03:42:36;49.13;;;22.15;;
71490;SDS011;59307;50.060;9.150;2023-02-12T03:45:13;47.53;;;21.23;;
71490;SDS011;59307;50.060;9.150;2023-02-12T03:47:47;41.15;;;21.15;;
71490;SDS011;59307;50.060;9.150;2023-02-12T03:50:16;48.08;;;22.35;;
71490;SDS011;59307;50.060;9.150;2023-02-12T03:52:41;44.63;;;22.57;;
71490;SDS011;59307;50.060;9.150;2023-02-12T03:55:07;51.03;;;23.88;;
71490;SDS011;59307;50.060;9.150;2023-02-12T03:57:33;43.67;;;21.43;;
71490;SDS011;59307;50.060;9.150;2023-02-12T04:00:08;44.92;;;20.60;;
71490;SDS011;59307;50.060;9.150;2023-02-12T04:02:34;45.13;;;21.65;;
71490;SDS011;59307;50.060;9.150;2023-02-12T04:05:04;48.70;;;22.17;;
71490;SDS011;59307;50.060;9.150;2023-02-12T04:07:30;47.72;;;22.88;;
71490;SDS011;59307;50.060;9.150;2023-02-12T04:09:55;47.97;;;22.93;;
71490;SDS011;59307;50.060;9.150;2023-02-12T04:12:30;45.73;;;22.80;;
71490;SDS011;59307;50.060;9.150;2023-02-12T04:30:44;45.17;;;21.83;;
71490;SDS011;59307;50.060;9.150;2023-02-12T04:33:12;40.35;;;20.15;;
71490;SDS011;59307;50.060;9.150;2023-02-12T04:38:14;46.43;;;22.13;;
71490;SDS011;59307;50.060;9.150;2023-02-12T04:40:41;48.53;;;22.60;;
71490;SDS011;59307;50.060;9.150;2023-02-12T04:43:07;43.55;;;21.95;;
71490;SDS011;59307;50.060;9.150;2023-02-12T04:45:33;43.80;;;22.37;;
71490;SDS011;59307;50.060;9.150;2023-02-12T04:47:58;44.05;;;20.48;;
71490;SDS011;59307;50.060;9.150;2023-02-12T04:50:24;43.10;;;22.80;;
71490;SDS011;59307;50.060;9.150;2023-02-12T04:52:49;46.97;;;21.93;;
71490;SDS011;59307;50.060;9.150;2023-02-12T04:55:14;47.85;;;22.67;;
71490;SDS011;59307;50.060;9.150;2023-02-12T04:57:40;42.97;;;20.70;;
71490;SDS011;59307;50.060;9.150;2023-02-12T05:00:05;47.40;;;22.83;;
71490;SDS011;59307;50.060;9.150;2023-02-12T05:02:32;43.43;;;21.73;;
71490;SDS011;59307;50.060;9.150;2023-02-12T05:04:57;42.40;;;22.25;;
71490;SDS011;59307;50.060;9.150;2023-02-12T05:07:22;45.13;;;22.43;;
71490;SDS011;59307;50.060;9.150;2023-02-12T05:09:48;45.57;;;21.37;;
71490;SDS011;59307;50.060;9.150;2023-02-12T05:12:13;43.13;;;21.83;;
71490;SDS011;59307;50.060;9.150;2023-02-12T05:14:38;47.17;;;22.77;;
71490;SDS011;59307;50.060;9.150;2023-02-12T05:17:03;44.67;;;21.63;;
71490;SDS011;59307;50.060;9.150;2023-02-12T05:19:28;44.53;;;22.13;;
71490;SDS011;59307;50.060;9.150;2023-02-12T05:21:53;43.50;;;21.30;;
71490;SDS011;59307;50.060;9.150;2023-02-12T05:24:19;47.20;;;22.53;;
71490;SDS011;59307;50.060;9.150;2023-02-12T05:26:44;43.60;;;20.60;;
71490;SDS011;59307;50.060;9.150;2023-02-12T05:29:09;43.97;;;21.27;;
71490;SDS011;59307;50.060;9.150;2023-02-12T05:31:34;42.73;;;21.17;;
71490;SDS011;59307;50.060;9.150;2023-02-12T05:33:59;42.63;;;20.77;;
71490;SDS011;59307;50.060;9.150;2023-02-12T05:36:25;45.20;;;23.07;;
71490;SDS011;59307;50.060;9.150;2023-02-12T05:38:51;45.30;;;23.25;;
71490;SDS011;59307;50.060;9.150;2023-02-12T05:41:17;46.73;;;22.00;;
71490;SDS011;59307;50.060;9.150;2023-02-12T05:43:43;46.25;;;22.45;;
71490;SDS011;59307;50.060;9.150;2023-02-12T05:46:09;46.95;;;22.15;;
71490;SDS011;59307;50.060;9.150;2023-02-12T05:48:35;45.13;;;22.87;;
71490;SDS011;59307;50.060;9.150;2023-02-12T05:51:04;42.72;;;21.90;;
71490;SDS011;59307;50.060;9.150;2023-02-12T05:53:30;45.63;;;22.95;;
71490;SDS011;59307;50.060;9.150;2023-02-12T05:56:05;45.87;;;22.07;;
71490;SDS011;59307;50.060;9.150;2023-02-12T05:58:30;47.72;;;23.25;;
71490;SDS011;59307;50.060;9.150;2023-02-12T06:00:55;44.37;;;22.30;;
71490;SDS011;59307;50.060;9.150;2023-02-12T06:03:20;42.83;;;21.67;;
71490;SDS011;59307;50.060;9.150;2023-02-12T06:05:49;43.63;;;21.73;;
71490;SDS011;59307;50.060;9.150;2023-02-12T06:08:14;45.65;;;22.10;;
71490;SDS011;59307;50.060;9.150;2023-02-12T06:10:39;44.97;;;21.23;;
71490;SDS011;59307;50.060;9.150;2023-02-12T06:13:04;44.03;;;21.50;;
71490;SDS011;59307;50.060;9.150;2023-02-12T06:15:30;41.03;;;21.17;;
71490;SDS011;59307;50.060;9.150;2023-02-12T06:17:55;41.00;;;21.47;;
71490;SDS011;59307;50.060;9.150;2023-02-12T06:20:20;44.73;;;22.33;;
71490;SDS011;59307;50.060;9.150;2023-02-12T06:22:45;46.40;;;22.13;;
71490;SDS011;59307;50.060;9.150;2023-02-12T06:25:11;49.37;;;23.87;;
71490;SDS011;59307;50.060;9.150;2023-02-12T06:27:36;46.30;;;22.77;;
71490;SDS011;59307;50.060;9.150;2023-02-12T06:30:01;48.17;;;24.60;;
71490;SDS011;59307;50.060;9.150;2023-02-12T06:32:26;49.23;;;24.47;;
71490;SDS011;59307;50.060;9.150;2023-02-12T06:34:51;45.47;;;23.27;;
71490;SDS011;59307;50.060;9.150;2023-02-12T06:37:17;46.47;;;22.80;;
71490;SDS011;59307;50.060;9.150;2023-02-12T06:39:42;47.70;;;24.43;;
71490;SDS011;59307;50.060;9.150;2023-02-12T06:42:07;48.80;;;25.23;;
71490;SDS011;59307;50.060;9.150;2023-02-12T06:44:32;50.20;;;25.87;;
71490;SDS011;59307;50.060;9.150;2023-02-12T06:46:57;49.80;;;24.63;;
71490;SDS011;59307;50.060;9.150;2023-02-12T06:49:23;57.60;;;25.70;;
71490;SDS011;59307;50.060;9.150;2023-02-12T06:51:48;50.83;;;25.17;;
71490;SDS011;59307;50.060;9.150;2023-02-12T06:54:14;52.43;;;24.83;;
71490;SDS011;59307;50.060;9.150;2023-02-12T06:56:39;55.85;;;25.67;;
71490;SDS011;59307;50.060;9.150;2023-02-12T06:59:04;46.77;;;22.57;;
71490;SDS011;59307;50.060;9.150;2023-02-12T07:01:29;47.13;;;22.33;;
71490;SDS011;59307;50.060;9.150;2023-02-12T07:03:59;42.37;;;21.27;;
71490;SDS011;59307;50.060;9.150;2023-02-12T07:06:25;46.90;;;21.73;;
71490;SDS011;59307;50.060;9.150;2023-02-12T07:08:50;43.60;;;21.00;;
71490;SDS011;59307;50.060;9.150;2023-02-12T07:11:16;41.80;;;21.57;;
71490;SDS011;59307;50.060;9.150;2023-02-12T07:13:41;42.10;;;21.10;;
71490;SDS011;59307;50.060;9.150;2023-02-12T07:16:08;38.85;;;19.80;;
71490;SDS011;59307;50.060;9.150;2023-02-12T07:18:34;40.33;;;19.30;;
71490;SDS011;59307;50.060;9.150;2023-02-12T07:20:59;44.23;;;20.63;;
71490;SDS011;59307;50.060;9.150;2023-02-12T07:23:25;45.17;;;21.40;;
71490;SDS011;59307;50.060;9.150;2023-02-12T07:25:53;45.93;;;20.93;;
71490;SDS011;59307;50.060;9.150;2023-02-12T07:28:19;44.40;;;20.50;;
71490;SDS011;59307;50.060;9.150;2023-02-12T07:30:44;48.27;;;21.40;;
71490;SDS011;59307;50.060;9.150;2023-02-12T07:33:09;45.70;;;22.10;;
71490;SDS011;59307;50.060;9.150;2023-02-12T07:35:34;44.43;;;21.37;;
71490;SDS011;59307;50.060;9.150;2023-02-12T07:37:59;46.93;;;22.73;;
71490;SDS011;59307;50.060;9.150;2023-02-12T07:40:25;40.80;;;20.73;;
71490;SDS011;59307;50.060;9.150;2023-02-12T07:42:53;41.53;;;19.87;;
71490;SDS011;59307;50.060;9.150;2023-02-12T07:45:19;43.38;;;20.67;;
71490;SDS011;59307;50.060;9.150;2023-02-12T07:47:44;40.60;;;20.17;;
71490;SDS011;59307;50.060;9.150;2023-02-12T07:50:10;42.83;;;21.07;;
71490;SDS011;59307;50.060;9.150;2023-02-12T07:52:35;43.70;;;19.63;;
71490;SDS011;59307;50.060;9.150;2023-02-12T07:55:00;47.13;;;21.37;;
71490;SDS011;59307;50.060;9.150;2023-02-12T07:57:25;46.27;;;23.43;;
71490;SDS011;59307;50.060;9.150;2023-02-12T07:59:51;43.63;;;21.03;;
71490;SDS011;59307;50.060;9.150;2023-02-12T08:02:16;49.05;;;23.85;;
71490;SDS011;59307;50.060;9.150;2023-02-12T08:04:41;46.20;;;23.10;;
71490;SDS011;59307;50.060;9.150;2023-02-12T08:07:07;46.80;;;21.67;;
71490;SDS011;59307;50.060;9.150;2023-02-12T08:09:32;51.23;;;23.77;;
71490;SDS011;59307;50.060;9.150;2023-02-12T08:11:57;53.47;;;25.13;;
71490;SDS011;59307;50.060;9.150;2023-02-12T08:14:23;61.55;;;28.17;;
71490;SDS011;59307;50.060;9.150;2023-02-12T08:16:49;56.63;;;26.27;;
71490;SDS011;59307;50.060;9.150;2023-02-12T08:19:14;54.97;;;25.73;;
71490;SDS011;59307;50.060;9.150;2023-02-12T08:21:40;59.75;;;28.20;;
71490;SDS011;59307;50.060;9.150;2023-02-12T08:24:05;66.03;;;30.83;;
71490;SDS011;59307;50.060;9.150;2023-02-12T08:26:31;75.47;;;35.17;;
71490;SDS011;59307;50.060;9.150;2023-02-12T08:28:58;71.68;;;33.03;;
71490;SDS011;59307;50.060;9.150;2023-02-12T08:31:33;65.00;;;31.17;;
71490;SDS011;59307;50.060;9.150;2023-02-12T08:33:59;61.13;;;30.07;;
71490;SDS011;59307;50.060;9.150;2023-02-12T08:36:25;57.25;;;30.00;;
71490;SDS011;59307;50.060;9.150;2023-02-12T08:38:51;58.30;;;28.33;;
71490;SDS011;59307;50.060;9.150;2023-02-12T08:41:20;56.47;;;27.07;;
71490;SDS011;59307;50.060;9.150;2023-02-12T08:43:46;59.60;;;28.42;;
71490;SDS011;59307;50.060;9.150;2023-02-12T08:46:12;56.40;;;27.57;;
71490;SDS011;59307;50.060;9.150;2023-02-12T08:48:38;52.30;;;26.52;;
71490;SDS011;59307;50.060;9.150;2023-02-12T08:51:08;49.43;;;25.20;;
71490;SDS011;59307;50.060;9.150;2023-02-12T08:53:34;49.67;;;24.95;;
71490;SDS011;59307;50.060;9.150;2023-02-12T08:55:59;48.87;;;25.33;;
71490;SDS011;59307;50.060;9.150;2023-02-12T08:58:24;45.03;;;22.33;;
71490;SDS011;59307;50.060;9.150;2023-02-12T09:00:50;41.38;;;20.83;;
71490;SDS011;59307;50.060;9.150;2023-02-12T09:03:15;44.73;;;22.73;;
71490;SDS011;59307;50.060;9.150;2023-02-12T09:05:40;47.10;;;23.47;;
71490;SDS011;59307;50.060;9.150;2023-02-12T09:08:06;51.40;;;23.20;;
71490;SDS011;59307;50.060;9.150;2023-02-12T09:10:31;49.20;;;23.33;;
71490;SDS011;59307;50.060;9.150;2023-02-12T09:12:56;45.90;;;22.83;;
71490;SDS011;59307;50.060;9.150;2023-02-12T09:15:22;48.83;;;25.43;;
71490;SDS011;59307;50.060;9.150;2023-02-12T09:17:47;58.30;;;29.90;;
71490;SDS011;59307;50.060;9.150;2023-02-12T09:20:12;51.40;;;24.67;;
71490;SDS011;59307;50.060;9.150;2023-02-12T09:22:37;49.93;;;24.13;;
71490;SDS011;59307;50.060;9.150;2023-02-12T09:25:04;53.33;;;25.13;;
71490;SDS011;59307;50.060;9.150;2023-02-12T09:27:29;59.40;;;26.50;;
71490;SDS011;59307;50.060;9.150;2023-02-12T09:29:55;54.70;;;25.53;;
71490;SDS011;59307;50.060;9.150;2023-02-12T09:32:20;62.87;;;25.50;;
71490;SDS011;59307;50.060;9.150;2023-02-12T09:34:45;58.33;;;23.67;;
71490;SDS011;59307;50.060;9.150;2023-02-12T09:37:10;63.07;;;23.70;;
71490;SDS011;59307;50.060;9.150;2023-02-12T09:39:35;57.70;;;23.90;;
71490;SDS011;59307;50.060;9.150;2023-02-12T09:42:07;59.73;;;24.43;;
71490;SDS011;59307;50.060;9.150;2023-02-12T09:49:40;60.13;;;23.60;;
71490;SDS011;59307;50.060;9.150;2023-02-12T09:52:11;62.30;;;25.17;;
71490;SDS011;59307;50.060;9.150;2023-02-12T09:54:39;62.75;;;23.38;;
71490;SDS011;59307;50.060;9.150;2023-02-12T09:57:06;62.67;;;25.27;;
71490;SDS011;59307;50.060;9.150;2023-02-12T09:59:40;63.90;;;25.40;;
71490;SDS011;59307;50.060;9.150;2023-02-12T10:02:14;65.65;;;27.48;;
71490;SDS011;59307;50.060;9.150;2023-02-12T10:04:40;68.85;;;25.75;;
71490;SDS011;59307;50.060;9.150;2023-02-12T10:10:02;56.83;;;23.73;;
71490;SDS011;59307;50.060;9.150;2023-02-12T10:12:43;55.95;;;23.65;;
71490;SDS011;59307;50.060;9.150;2023-02-12T10:15:16;57.47;;;22.92;;
71490;SDS011;59307;50.060;9.150;2023-02-12T10:17:47;58.47;;;23.20;;
71490;SDS011;59307;50.060;9.150;2023-02-12T10:27:49;53.97;;;22.20;;
71490;SDS011;59307;50.060;9.150;2023-02-12T10:32:41;47.57;;;21.23;;
71490;SDS011;59307;50.060;9.150;2023-02-12T10:35:14;47.22;;;20.35;;
71490;SDS011;59307;50.060;9.150;2023-02-12T10:42:49;55.30;;;21.90;;
71490;SDS011;59307;50.060;9.150;2023-02-12T10:45:17;57.08;;;26.92;;
71490;SDS011;59307;50.060;9.150;2023-02-12T10:47:43;48.50;;;21.17;;
71490;SDS011;59307;50.060;9.150;2023-02-12T10:52:46;47.55;;;20.38;;
71490;SDS011;59307;50.060;9.150;2023-02-12T10:55:23;47.13;;;21.77;;
71490;SDS011;59307;50.060;9.150;2023-02-12T10:57:48;50.53;;;24.98;;
71490;SDS011;59307;50.060;9.150;2023-02-12T11:00:35;52.80;;;24.50;;
71490;SDS011;59307;50.060;9.150;2023-02-12T11:03:00;47.70;;;21.85;;
71490;SDS011;59307;50.060;9.150;2023-02-12T11:05:28;40.13;;;18.63;;
71490;SDS011;59307;50.060;9.150;2023-02-12T11:07:53;37.50;;;17.33;;
71490;SDS011;59307;50.060;9.150;2023-02-12T11:10:19;34.30;;;16.53;;
71490;SDS011;59307;50.060;9.150;2023-02-12T11:12:45;35.33;;;16.70;;
71490;SDS011;59307;50.060;9.150;2023-02-12T11:15:14;33.00;;;15.63;;
71490;SDS011;59307;50.060;9.150;2023-02-12T11:17:41;35.60;;;16.55;;
71490;SDS011;59307;50.060;9.150;2023-02-12T11:22:51;38.45;;;17.50;;
71490;SDS011;59307;50.060;9.150;2023-02-12T11:25:17;39.47;;;18.27;;
71490;SDS011;59307;50.060;9.150;2023-02-12T11:27:43;39.93;;;18.23;;
71490;SDS011;59307;50.060;9.150;2023-02-12T11:32:37;35.38;;;16.58;;
71490;SDS011;59307;50.060;9.150;2023-02-12T11:35:03;36.70;;;15.97;;
71490;SDS011;59307;50.060;9.150;2023-02-12T11:37:29;40.90;;;16.35;;
71490;SDS011;59307;50.060;9.150;2023-02-12T11:39:56;27.80;;;12.17;;
71490;SDS011;59307;50.060;9.150;2023-02-12T11:42:23;26.23;;;11.98;;
71490;SDS011;59307;50.060;9.150;2023-02-12T11:44:50;26.77;;;13.05;;
71490;SDS011;59307;50.060;9.150;2023-02-12T11:47:17;23.75;;;10.35;;
71490;SDS011;59307;50.060;9.150;2023-02-12T11:52:27;27.40;;;12.07;;
71490;SDS011;59307;50.060;9.150;2023-02-12T11:54:56;26.05;;;11.63;;
71490;SDS011;59307;50.060;9.150;2023-02-12T11:57:36;20.52;;;9.50;;
71490;SDS011;59307;50.060;9.150;2023-02-12T12:00:04;18.27;;;8.32;;
71490;SDS011;59307;50.060;9.150;2023-02-12T12:02:31;16.55;;;7.13;;
71490;SDS011;59307;50.060;9.150;2023-02-12T12:05:04;15.50;;;6.50;;
71490;SDS011;59307;50.060;9.150;2023-02-12T12:07:31;13.30;;;6.28;;
71490;SDS011;59307;50.060;9.150;2023-02-12T12:10:06;14.43;;;7.53;;
71490;SDS011;59307;50.060;9.150;2023-02-12T12:12:44;18.42;;;8.18;;
71490;SDS011;59307;50.060;9.150;2023-02-12T12:15:23;16.17;;;7.90;;
71490;SDS011;59307;50.060;9.150;2023-02-12T12:18:16;14.93;;;6.90;;
71490;SDS011;59307;50.060;9.150;2023-02-12T12:23:57;17.58;;;8.13;;
71490;SDS011;59307;50.060;9.150;2023-02-12T12:26:25;17.60;;;7.80;;
71490;SDS011;59307;50.060;9.150;2023-02-12T12:29:05;19.73;;;8.27;;
71490;SDS011;59307;50.060;9.150;2023-02-12T12:31:39;16.40;;;8.43;;
71490;SDS011;59307;50.060;9.150;2023-02-12T12:34:16;18.45;;;9.20;;
71490;SDS011;59307;50.060;9.150;2023-02-12T12:39:26;17.08;;;8.18;;
71490;SDS011;59307;50.060;9.150;2023-02-12T12:42:01;17.58;;;7.57;;
71490;SDS011;59307;50.060;9.150;2023-02-12T12:52:38;17.67;;;8.00;;
71490;SDS011;59307;50.060;9.150;2023-02-12T12:58:01;16.50;;;7.85;;
71490;SDS011;59307;50.060;9.150;2023-02-12T13:05:22;17.67;;;8.07;;
71490;SDS011;59307;50.060;9.150;2023-02-12T13:15:51;15.93;;;7.30;;
71490;SDS011;59307;50.060;9.150;2023-02-12T13:20:50;17.80;;;8.45;;
71490;SDS011;59307;50.060;9.150;2023-02-12T13:28:33;17.33;;;8.10;;
71490;SDS011;59307;50.060;9.150;2023-02-12T13:30:59;18.10;;;9.05;;
71490;SDS011;59307;50.060;9.150;2023-02-12T13:33:32;21.93;;;9.73;;
71490;SDS011;59307;50.060;9.150;2023-02-12T13:36:01;18.88;;;8.85;;
71490;SDS011;59307;50.060;9.150;2023-02-12T13:38:33;18.55;;;8.93;;
71490;SDS011;59307;50.060;9.150;2023-02-12T13:41:04;20.02;;;9.95;;
71490;SDS011;59307;50.060;9.150;2023-02-12T13:43:37;18.17;;;8.80;;
71490;SDS011;59307;50.060;9.150;2023-02-12T13:53:41;15.55;;;7.95;;
71490;SDS011;59307;50.060;9.150;2023-02-12T14:01:05;15.05;;;7.70;;
71490;SDS011;59307;50.060;9.150;2023-02-12T14:03:34;16.38;;;7.70;;
71490;SDS011;59307;50.060;9.150;2023-02-12T14:06:10;13.05;;;7.28;;
71490;SDS011;59307;50.060;9.150;2023-02-12T14:08:37;16.70;;;8.02;;
71490;SDS011;59307;50.060;9.150;2023-02-12T14:11:06;13.83;;;6.87;;
71490;SDS011;59307;50.060;9.150;2023-02-12T14:13:33;14.02;;;7.15;;
71490;SDS011;59307;50.060;9.150;2023-02-12T14:16:17;12.68;;;7.03;;
71490;SDS011;59307;50.060;9.150;2023-02-12T14:18:43;13.90;;;7.00;;
71490;SDS011;59307;50.060;9.150;2023-02-12T14:23:39;14.15;;;6.80;;
71490;SDS011;59307;50.060;9.150;2023-02-12T14:26:15;13.77;;;7.20;;
71490;SDS011;59307;50.060;9.150;2023-02-12T14:33:44;13.25;;;7.00;;
71490;SDS011;59307;50.060;9.150;2023-02-12T14:41:23;10.73;;;5.70;;
71490;SDS011;59307;50.060;9.150;2023-02-12T14:46:43;11.23;;;5.78;;
71490;SDS011;59307;50.060;9.150;2023-02-12T14:49:27;12.18;;;6.18;;
71490;SDS011;59307;50.060;9.150;2023-02-12T14:52:01;12.25;;;5.68;;
71490;SDS011;59307;50.060;9.150;2023-02-12T14:54:33;10.45;;;5.40;;
71490;SDS011;59307;50.060;9.150;2023-02-12T14:57:00;11.53;;;5.30;;
71490;SDS011;59307;50.060;9.150;2023-02-12T14:59:27;10.00;;;5.03;;
71490;SDS011;59307;50.060;9.150;2023-02-12T15:01:56;9.38;;;4.70;;
71490;SDS011;59307;50.060;9.150;2023-02-12T15:04:23;9.80;;;4.93;;
71490;SDS011;59307;50.060;9.150;2023-02-12T15:06:50;10.20;;;4.53;;
71490;SDS011;59307;50.060;9.150;2023-02-12T15:09:28;8.67;;;4.40;;
71490;SDS011;59307;50.060;9.150;2023-02-12T15:12:02;9.10;;;4.50;;
71490;SDS011;59307;50.060;9.150;2023-02-12T15:14:30;9.90;;;5.13;;
71490;SDS011;59307;50.060;9.150;2023-02-12T15:16:58;10.73;;;4.88;;
71490;SDS011;59307;50.060;9.150;2023-02-12T15:19:42;9.90;;;4.97;;
71490;SDS011;59307;50.060;9.150;2023-02-12T15:22:13;10.10;;;5.27;;
71490;SDS011;59307;50.060;9.150;2023-02-12T15:24:41;10.32;;;4.80;;
71490;SDS011;59307;50.060;9.150;2023-02-12T15:27:06;11.17;;;5.57;;
71490;SDS011;59307;50.060;9.150;2023-02-12T15:29:40;12.07;;;5.33;;
71490;SDS011;59307;50.060;9.150;2023-02-12T15:32:06;10.98;;;5.25;;
71490;SDS011;59307;50.060;9.150;2023-02-12T15:34:35;8.68;;;4.88;;
71490;SDS011;59307;50.060;9.150;2023-02-12T15:37:03;10.80;;;5.07;;
71490;SDS011;59307;50.060;9.150;2023-02-12T15:39:32;9.93;;;5.17;;
71490;SDS011;59307;50.060;9.150;2023-02-12T15:42:01;11.88;;;5.63;;
71490;SDS011;59307;50.060;9.150;2023-02-12T15:44:28;11.20;;;5.40;;
71490;SDS011;59307;50.060;9.150;2023-02-12T15:49:33;9.45;;;4.78;;
71490;SDS011;59307;50.060;9.150;2023-02-12T15:51:59;9.40;;;5.40;;
71490;SDS011;59307;50.060;9.150;2023-02-12T15:54:26;11.37;;;5.53;;
71490;SDS011;59307;50.060;9.150;2023-02-12T15:56:52;9.90;;;4.87;;
71490;SDS011;59307;50.060;9.150;2023-02-12T15:59:18;10.02;;;4.80;;
71490;SDS011;59307;50.060;9.150;2023-02-12T16:01:51;10.32;;;4.90;;
71490;SDS011;59307;50.060;9.150;2023-02-12T16:04:17;10.95;;;4.70;;
71490;SDS011;59307;50.060;9.150;2023-02-12T16:06:42;8.63;;;4.70;;
71490;SDS011;59307;50.060;9.150;2023-02-12T16:09:17;8.53;;;4.47;;
71490;SDS011;59307;50.060;9.150;2023-02-12T16:11:44;9.43;;;4.53;;
71490;SDS011;59307;50.060;9.150;2023-02-12T16:14:21;8.43;;;4.40;;
71490;SDS011;59307;50.060;9.150;2023-02-12T16:16:47;8.13;;;4.20;;
71490;SDS011;59307;50.060;9.150;2023-02-12T16:19:18;10.20;;;4.50;;
71490;SDS011;59307;50.060;9.150;2023-02-12T16:21:43;9.55;;;4.30;;
71490;SDS011;59307;50.060;9.150;2023-02-12T16:24:20;9.73;;;4.50;;
71490;SDS011;59307;50.060;9.150;2023-02-12T16:26:46;8.77;;;4.25;;
71490;SDS011;59307;50.060;9.150;2023-02-12T16:29:14;8.47;;;3.93;;
71490;SDS011;59307;50.060;9.150;2023-02-12T16:31:40;8.60;;;4.35;;
71490;SDS011;59307;50.060;9.150;2023-02-12T16:34:25;7.82;;;4.00;;
71490;SDS011;59307;50.060;9.150;2023-02-12T16:36:51;9.02;;;4.05;;
71490;SDS011;59307;50.060;9.150;2023-02-12T16:42:01;9.35;;;4.45;;
71490;SDS011;59307;50.060;9.150;2023-02-12T16:44:27;9.23;;;4.50;;
71490;SDS011;59307;50.060;9.150;2023-02-12T16:46:56;9.13;;;4.28;;